Time;durP1;ratioP1;P1;durP2;ratioP2;P2;SDS_P1;SDS_P2;PMS_P1;PMS_P2;Temp;Humidity;BMP_temperature;BMP_pressure;BME280_temperature;BME280_humidity;BME280_pressure;Samples;Min_cycle;Max_cycle;Signal;HPM_P1;HPM_P2
2021/08/17 00:00:28;;;;;;;10.60;5.15;;;11.70;99.90;;;;;;5011904;28;20529;-72
2021/08/17 00:02:54;;;;;;;13.30;5.35;;;11.60;99.90;;;;;;5011925;28;20108;-72
2021/08/17 00:05:19;;;;;;;10.98;5.95;;;11.60;99.90;;;;;;5011632;28;20108;-72
2021/08/17 00:07:45;;;;;;;9.70;5.80;;;11.40;99.90;;;;;;5011950;28;20026;-73
2021/08/17 00:10:11;;;;;;;13.15;6.50;;;11.40;99.90;;;;;;5011813;28;20088;-73
2021/08/17 00:12:36;;;;;;;12.32;5.80;;;11.30;99.90;;;;;;5011752;28;20022;-73
2021/08/17 00:15:04;;;;;;;14.23;5.57;;;11.40;99.90;;;;;;4999489;28;20022;-72
2021/08/17 00:17:30;;;;;;;8.75;5.88;;;11.40;99.90;;;;;;4992158;28;20022;-72
2021/08/17 00:19:55;;;;;;;11.52;6.07;;;11.50;99.90;;;;;;4992170;28;20084;-72
2021/08/17 00:22:23;;;;;;;9.52;5.50;;;11.70;99.90;;;;;;4992042;28;20022;-72
2021/08/17 00:24:50;;;;;;;8.75;5.78;;;11.50;99.90;;;;;;4991877;28;20026;-73
2021/08/17 00:27:15;;;;;;;13.48;6.95;;;11.50;99.90;;;;;;4992131;28;20022;-72
2021/08/17 00:29:41;;;;;;;9.43;6.03;;;11.40;99.90;;;;;;4990732;28;20038;-73
2021/08/17 00:32:06;;;;;;;12.35;6.43;;;11.40;99.90;;;;;;4992463;28;20034;-73
2021/08/17 00:34:32;;;;;;;13.15;6.68;;;11.40;99.90;;;;;;4993366;28;20472;-72
2021/08/17 00:36:57;;;;;;;14.20;6.63;;;11.20;99.90;;;;;;4996223;28;20073;-72
2021/08/17 00:39:23;;;;;;;12.43;7.47;;;11.30;99.90;;;;;;4994930;28;20053;-73
2021/08/17 00:41:48;;;;;;;12.95;7.57;;;11.40;99.90;;;;;;4996231;28;20030;-72
2021/08/17 00:44:28;;;;;;;13.15;6.82;;;11.30;99.90;;;;;;4996073;28;20054;-72
2021/08/17 00:46:54;;;;;;;13.63;7.13;;;11.30;99.90;;;;;;4996140;28;20049;-72
2021/08/17 00:49:20;;;;;;;13.55;7.57;;;11.20;99.90;;;;;;4995918;28;20027;-73
2021/08/17 00:51:47;;;;;;;13.10;7.90;;;11.10;99.90;;;;;;4997171;28;20033;-72
2021/08/17 00:54:13;;;;;;;16.27;7.75;;;11.00;99.90;;;;;;4995515;28;20026;-72
2021/08/17 00:56:40;;;;;;;13.15;7.85;;;11.00;99.90;;;;;;4995291;28;20026;-72
2021/08/17 00:59:06;;;;;;;17.23;8.32;;;10.90;99.90;;;;;;4994190;28;20109;-72
2021/08/17 01:01:31;;;;;;;15.93;8.70;;;10.80;99.90;;;;;;4995362;28;20109;-72
2021/08/17 01:03:57;;;;;;;15.77;8.63;;;10.90;99.90;;;;;;4995466;28;20026;-72
2021/08/17 01:06:23;;;;;;;12.73;8.35;;;11.00;99.90;;;;;;4993783;28;20488;-72
2021/08/17 01:08:49;;;;;;;10.45;7.72;;;11.20;99.90;;;;;;4995318;28;20109;-72
2021/08/17 01:11:15;;;;;;;12.30;7.78;;;11.30;99.90;;;;;;4995199;28;20083;-72
2021/08/17 01:13:41;;;;;;;12.77;8.15;;;11.40;99.90;;;;;;4995073;28;20427;-72
2021/08/17 01:16:06;;;;;;;12.32;8.38;;;11.40;99.90;;;;;;4994804;28;20177;-72
2021/08/17 01:18:32;;;;;;;13.75;8.77;;;11.50;99.90;;;;;;4995510;28;20023;-73
2021/08/17 01:20:58;;;;;;;13.75;8.00;;;11.50;99.90;;;;;;4995257;28;20140;-73
2021/08/17 01:23:26;;;;;;;19.38;8.75;;;11.70;99.90;;;;;;4995274;28;20048;-72
2021/08/17 01:25:52;;;;;;;12.65;8.27;;;11.80;99.90;;;;;;4994859;28;20109;-72
2021/08/17 01:28:18;;;;;;;17.35;9.02;;;11.80;99.90;;;;;;4995030;28;20360;-72
2021/08/17 01:30:44;;;;;;;14.52;8.75;;;11.80;99.90;;;;;;4994711;28;20030;-72
2021/08/17 01:33:10;;;;;;;18.55;9.75;;;11.90;99.90;;;;;;4994841;28;20038;-73
2021/08/17 01:35:35;;;;;;;17.20;9.20;;;11.90;99.90;;;;;;4994634;28;20031;-72
2021/08/17 01:38:05;;;;;;;15.82;9.60;;;11.50;99.90;;;;;;4994978;28;20026;-72
2021/08/17 01:40:31;;;;;;;21.45;10.73;;;11.40;99.90;;;;;;4994644;28;20026;-72
2021/08/17 01:42:57;;;;;;;17.05;9.60;;;11.20;99.90;;;;;;4993420;28;20077;-72
2021/08/17 01:45:22;;;;;;;17.77;10.32;;;11.10;99.90;;;;;;4993795;28;20034;-73
2021/08/17 01:47:55;;;;;;;15.20;8.80;;;11.10;99.90;;;;;;4994663;28;20097;-72
2021/08/17 01:50:21;;;;;;;21.83;10.88;;;11.20;99.90;;;;;;4993193;28;20038;-72
2021/08/17 01:52:47;;;;;;;13.93;9.25;;;11.00;99.90;;;;;;4994448;28;20035;-72
2021/08/17 01:55:13;;;;;;;19.50;10.75;;;11.10;99.90;;;;;;4994645;28;20069;-72
2021/08/17 01:57:39;;;;;;;18.65;10.18;;;11.00;99.90;;;;;;4994509;28;20019;-72
2021/08/17 02:00:09;;;;;;;20.38;9.73;;;10.90;99.90;;;;;;4994465;28;20076;-72
2021/08/17 02:02:35;;;;;;;17.00;10.50;;;11.10;99.90;;;;;;4993038;28;20089;-72
2021/08/17 02:05:01;;;;;;;18.85;10.82;;;11.10;99.90;;;;;;4992827;28;20038;-73
2021/08/17 02:07:27;;;;;;;15.13;9.85;;;11.10;99.90;;;;;;4993064;28;20533;-72
2021/08/17 02:09:52;;;;;;;15.13;10.48;;;11.20;99.90;;;;;;4993989;28;20034;-72
2021/08/17 02:12:18;;;;;;;18.60;11.05;;;11.10;99.90;;;;;;4994067;28;20030;-72
2021/08/17 02:14:43;;;;;;;18.48;10.73;;;11.00;99.90;;;;;;4993729;28;20023;-72
2021/08/17 02:17:09;;;;;;;19.20;10.27;;;11.00;99.90;;;;;;4994018;28;20046;-72
2021/08/17 02:19:34;;;;;;;18.67;10.95;;;11.10;99.90;;;;;;4994048;28;20030;-72
2021/08/17 02:22:00;;;;;;;15.82;9.85;;;11.20;99.90;;;;;;4993928;28;20030;-72
2021/08/17 02:24:26;;;;;;;16.73;9.98;;;11.30;99.90;;;;;;4993555;28;20034;-72
2021/08/17 02:26:52;;;;;;;20.23;10.82;;;11.30;99.90;;;;;;4993908;28;20026;-72
2021/08/17 02:29:17;;;;;;;15.27;9.93;;;11.30;99.90;;;;;;4993783;28;20026;-72
2021/08/17 02:31:43;;;;;;;12.73;9.15;;;11.30;99.90;;;;;;4993630;28;20511;-72
2021/08/17 02:34:08;;;;;;;14.40;9.35;;;11.30;99.90;;;;;;4992421;28;20025;-73
2021/08/17 02:36:34;;;;;;;14.85;10.13;;;11.20;99.90;;;;;;4993548;28;20026;-72
2021/08/17 02:39:00;;;;;;;15.18;9.85;;;11.10;99.90;;;;;;4993535;28;20249;-72
2021/08/17 02:41:25;;;;;;;14.73;9.50;;;11.20;99.90;;;;;;4993592;28;20026;-72
2021/08/17 02:43:51;;;;;;;17.42;10.05;;;11.10;99.90;;;;;;4993531;28;20026;-72
2021/08/17 02:46:17;;;;;;;19.25;10.10;;;11.20;99.90;;;;;;4993212;28;20030;-72
2021/08/17 02:48:43;;;;;;;16.33;9.80;;;11.20;99.90;;;;;;4993409;28;20023;-72
2021/08/17 02:51:09;;;;;;;14.38;9.55;;;11.30;99.90;;;;;;4993140;28;20537;-73
2021/08/17 02:53:34;;;;;;;14.00;9.45;;;11.60;99.90;;;;;;4992047;28;20077;-72
2021/08/17 02:56:00;;;;;;;14.20;9.18;;;11.50;99.90;;;;;;4991864;28;20018;-72
2021/08/17 02:58:26;;;;;;;17.75;10.52;;;11.60;99.90;;;;;;4992305;28;20481;-72
2021/08/17 03:00:51;;;;;;;14.93;9.20;;;11.70;99.90;;;;;;4991973;28;20061;-72
2021/08/17 03:03:17;;;;;;;14.00;9.48;;;11.90;99.90;;;;;;4993205;28;20555;-72
2021/08/17 03:05:43;;;;;;;14.38;9.35;;;11.90;99.90;;;;;;4991709;28;20049;-72
2021/08/17 03:08:08;;;;;;;15.77;9.68;;;11.90;99.90;;;;;;4991675;28;20030;-72
2021/08/17 03:10:37;;;;;;;15.52;10.30;;;11.50;99.90;;;;;;4991790;28;20113;-72
2021/08/17 03:13:05;;;;;;;15.85;9.38;;;11.50;99.90;;;;;;4992882;28;20018;-72
2021/08/17 03:15:34;;;;;;;17.08;10.10;;;11.70;99.90;;;;;;4992520;28;20031;-72
2021/08/17 03:18:04;;;;;;;19.50;10.32;;;11.50;99.90;;;;;;4992831;28;20485;-72
2021/08/17 03:20:31;;;;;;;19.48;10.18;;;11.60;99.90;;;;;;4993015;28;20496;-72
2021/08/17 03:22:57;;;;;;;19.05;10.00;;;11.80;99.90;;;;;;4992719;28;20117;-72
2021/08/17 03:25:25;;;;;;;17.63;10.00;;;11.50;99.90;;;;;;4992652;28;20031;-72
2021/08/17 03:27:51;;;;;;;19.98;10.60;;;11.50;99.90;;;;;;4992765;28;20385;-72
2021/08/17 03:30:19;;;;;;;16.88;10.23;;;11.40;99.90;;;;;;4992795;28;20030;-72
2021/08/17 03:32:45;;;;;;;16.48;10.15;;;11.30;99.90;;;;;;4992519;28;20033;-74
2021/08/17 03:35:12;;;;;;;15.65;9.93;;;11.50;99.90;;;;;;4992417;28;20026;-72
2021/08/17 03:37:38;;;;;;;17.25;10.43;;;11.50;99.90;;;;;;4992598;28;20037;-72
2021/08/17 03:40:13;;;;;;;17.77;10.38;;;11.70;99.90;;;;;;4992579;28;20101;-72
2021/08/17 03:42:39;;;;;;;16.65;11.02;;;11.60;99.90;;;;;;4992557;28;20401;-72
2021/08/17 03:45:06;;;;;;;16.40;10.30;;;11.50;99.90;;;;;;4992242;28;20029;-72
2021/08/17 03:47:32;;;;;;;18.67;10.30;;;11.30;99.90;;;;;;4992436;28;20038;-73
2021/08/17 03:49:57;;;;;;;17.25;11.15;;;11.30;99.90;;;;;;4992376;28;20049;-72
2021/08/17 03:52:23;;;;;;;19.67;10.63;;;11.20;99.90;;;;;;4992518;28;20511;-72
2021/08/17 03:54:48;;;;;;;17.55;10.52;;;11.20;99.90;;;;;;4992238;28;20057;-73
2021/08/17 03:57:14;;;;;;;15.27;10.55;;;11.10;99.90;;;;;;4992383;28;20077;-72
2021/08/17 03:59:40;;;;;;;15.48;10.52;;;11.10;99.90;;;;;;4991433;28;20031;-72
2021/08/17 04:02:05;;;;;;;16.83;11.02;;;11.00;99.90;;;;;;4992204;28;20035;-72
2021/08/17 04:04:31;;;;;;;19.65;11.77;;;11.10;99.90;;;;;;4992092;28;20058;-72
2021/08/17 04:06:56;;;;;;;19.73;11.50;;;11.10;99.90;;;;;;4992248;28;20039;-72
2021/08/17 04:09:22;;;;;;;20.75;11.63;;;11.10;99.90;;;;;;4994731;28;20034;-72
2021/08/17 04:11:47;;;;;;;19.70;11.52;;;11.20;99.90;;;;;;4996258;28;20428;-72
2021/08/17 04:14:13;;;;;;;18.75;10.18;;;11.20;99.90;;;;;;4996244;28;20026;-72
2021/08/17 04:16:38;;;;;;;18.00;10.40;;;11.20;99.90;;;;;;4996070;28;20034;-72
2021/08/17 04:19:04;;;;;;;17.75;10.20;;;11.30;99.90;;;;;;4996222;28;20034;-72
2021/08/17 04:21:29;;;;;;;16.25;9.93;;;11.30;99.90;;;;;;4996018;28;20026;-72
2021/08/17 04:23:57;;;;;;;15.63;8.48;;;11.20;99.90;;;;;;4996184;28;20031;-72
2021/08/17 04:26:23;;;;;;;15.77;8.95;;;11.20;99.90;;;;;;4995993;28;20022;-72
2021/08/17 04:28:48;;;;;;;15.60;8.95;;;11.20;99.90;;;;;;4994838;28;20053;-72
2021/08/17 04:31:14;;;;;;;15.10;9.68;;;11.20;99.90;;;;;;4995816;28;20026;-74
2021/08/17 04:33:39;;;;;;;16.55;9.25;;;11.10;99.90;;;;;;4995985;28;20037;-72
2021/08/17 04:36:05;;;;;;;16.92;9.15;;;11.20;99.90;;;;;;4995901;28;20030;-72
2021/08/17 04:38:30;;;;;;;17.83;9.55;;;11.20;99.90;;;;;;4996003;28;20077;-72
2021/08/17 04:40:56;;;;;;;16.00;9.40;;;11.10;99.90;;;;;;4995780;28;20034;-72
2021/08/17 04:43:21;;;;;;;17.30;9.65;;;11.10;99.90;;;;;;4995835;28;20038;-72
2021/08/17 04:45:49;;;;;;;16.40;9.95;;;11.10;99.90;;;;;;4995570;28;20026;-72
2021/08/17 04:48:15;;;;;;;18.55;9.40;;;11.10;99.90;;;;;;4995684;28;20026;-72
2021/08/17 04:50:40;;;;;;;15.80;9.07;;;11.10;99.90;;;;;;4995530;28;20038;-73
2021/08/17 04:53:06;;;;;;;15.02;9.65;;;11.20;99.90;;;;;;4995546;28;20041;-72
2021/08/17 04:55:31;;;;;;;16.67;8.98;;;11.10;99.90;;;;;;4995488;28;20030;-73
2021/08/17 04:57:58;;;;;;;15.63;8.98;;;11.10;99.90;;;;;;4995738;28;20105;-72
2021/08/17 05:00:26;;;;;;;15.68;8.77;;;11.10;99.90;;;;;;4995300;28;20104;-72
2021/08/17 05:02:52;;;;;;;16.25;9.00;;;11.10;99.90;;;;;;4995348;28;20063;-72
2021/08/17 05:05:18;;;;;;;17.42;8.88;;;11.10;99.90;;;;;;4995156;28;20124;-72
2021/08/17 05:07:45;;;;;;;17.50;9.55;;;11.20;99.90;;;;;;4994117;28;20522;-72
2021/08/17 05:10:15;;;;;;;18.77;9.27;;;11.20;99.90;;;;;;4995282;28;20041;-72
2021/08/17 05:12:41;;;;;;;18.95;9.32;;;11.20;99.90;;;;;;4995126;28;20489;-72
2021/08/17 05:15:08;;;;;;;18.90;9.43;;;11.30;99.90;;;;;;4994771;28;20030;-72
2021/08/17 05:17:34;;;;;;;20.55;9.13;;;11.30;99.90;;;;;;4995247;28;20023;-72
2021/08/17 05:20:00;;;;;;;14.02;9.35;;;11.30;99.90;;;;;;4993976;28;20485;-72
2021/08/17 05:22:25;;;;;;;21.20;9.32;;;11.30;99.90;;;;;;4995072;28;20088;-72
2021/08/17 05:24:51;;;;;;;20.65;10.45;;;11.20;99.90;;;;;;4993728;28;20500;-72
2021/08/17 05:27:17;;;;;;;15.20;9.32;;;11.20;99.90;;;;;;4994999;28;20441;-72
2021/08/17 05:29:42;;;;;;;18.10;9.73;;;11.20;99.90;;;;;;5001071;28;20428;-72
2021/08/17 05:32:08;;;;;;;17.25;9.07;;;11.20;99.90;;;;;;5014811;28;20073;-72
2021/08/17 05:34:34;;;;;;;15.40;8.65;;;11.20;99.90;;;;;;5014298;28;20022;-72
2021/08/17 05:37:00;;;;;;;16.40;8.55;;;11.30;99.90;;;;;;5014465;28;20034;-72
2021/08/17 05:39:25;;;;;;;14.60;8.70;;;11.40;99.90;;;;;;5014493;28;20026;-72
2021/08/17 05:41:51;;;;;;;15.30;8.98;;;11.40;99.90;;;;;;5014369;28;20129;-72
2021/08/17 05:44:17;;;;;;;15.30;8.50;;;11.50;99.90;;;;;;5014198;28;20033;-72
2021/08/17 05:46:43;;;;;;;16.60;8.38;;;11.30;99.90;;;;;;5014269;28;20022;-72
2021/08/17 05:49:08;;;;;;;14.43;8.50;;;11.60;99.90;;;;;;5014214;28;20030;-72
2021/08/17 05:51:34;;;;;;;13.57;8.25;;;11.70;99.90;;;;;;5013828;28;20114;-72
2021/08/17 05:54:00;;;;;;;15.77;9.00;;;11.70;99.90;;;;;;5014150;28;20061;-72
2021/08/17 05:56:25;;;;;;;17.77;8.63;;;11.70;99.90;;;;;;5013838;28;20052;-72
2021/08/17 05:58:50;;;;;;;16.83;9.20;;;11.80;99.90;;;;;;5013854;28;20493;-72
2021/08/17 06:01:16;;;;;;;16.33;9.10;;;11.80;99.90;;;;;;5013913;28;20037;-72
2021/08/17 06:03:41;;;;;;;20.33;8.93;;;11.80;99.90;;;;;;5013991;28;20057;-72
2021/08/17 06:06:07;;;;;;;13.02;8.20;;;11.70;99.90;;;;;;5012415;28;20463;-72
2021/08/17 06:08:32;;;;;;;15.73;8.88;;;11.80;99.90;;;;;;5013851;28;20022;-72
2021/08/17 06:10:58;;;;;;;13.43;7.47;;;11.80;99.90;;;;;;5013722;28;20110;-74
2021/08/17 06:13:25;;;;;;;11.32;8.05;;;11.80;99.90;;;;;;4994078;28;20041;-72
2021/08/17 06:15:51;;;;;;;14.80;8.75;;;11.70;99.90;;;;;;4994181;28;20022;-72
2021/08/17 06:18:16;;;;;;;17.70;8.07;;;11.70;99.90;;;;;;4992749;28;20022;-72
2021/08/17 06:20:42;;;;;;;13.40;7.75;;;11.70;99.90;;;;;;4994432;28;20026;-72
2021/08/17 06:23:08;;;;;;;17.70;8.00;;;11.80;99.90;;;;;;4993885;28;20072;-72
2021/08/17 06:25:34;;;;;;;18.23;9.25;;;11.90;99.90;;;;;;4993724;28;20497;-72
2021/08/17 06:28:00;;;;;;;14.73;8.25;;;11.80;99.90;;;;;;4993784;28;20058;-72
2021/08/17 06:30:26;;;;;;;12.80;8.00;;;11.80;99.90;;;;;;4993934;28;20034;-73
2021/08/17 06:32:53;;;;;;;14.55;8.30;;;11.80;99.90;;;;;;4993662;28;20034;-72
2021/08/17 06:35:19;;;;;;;15.40;8.27;;;11.80;99.90;;;;;;4993718;28;20041;-72
2021/08/17 06:37:44;;;;;;;14.45;7.60;;;11.80;99.90;;;;;;4993708;28;20022;-72
2021/08/17 06:40:10;;;;;;;16.30;8.07;;;11.80;99.90;;;;;;4993635;28;20026;-72
2021/08/17 06:42:36;;;;;;;20.73;7.55;;;11.90;99.90;;;;;;4993385;28;20481;-72
2021/08/17 06:45:03;;;;;;;13.38;7.80;;;12.00;99.90;;;;;;4993340;28;20037;-72
2021/08/17 06:47:28;;;;;;;15.02;7.53;;;12.10;99.90;;;;;;4992248;28;20084;-72
2021/08/17 06:49:54;;;;;;;11.00;7.05;;;12.20;99.90;;;;;;4993541;28;20042;-72
2021/08/17 06:52:19;;;;;;;10.35;6.07;;;12.20;99.90;;;;;;4993251;28;20042;-72
2021/08/17 06:54:45;;;;;;;15.18;7.60;;;12.20;99.90;;;;;;4991966;28;20041;-72
2021/08/17 06:57:10;;;;;;;12.90;7.10;;;12.10;99.90;;;;;;4993188;28;20080;-72
2021/08/17 06:59:36;;;;;;;11.98;7.05;;;12.30;99.90;;;;;;4993371;28;20034;-72
2021/08/17 07:02:01;;;;;;;10.98;6.68;;;12.50;99.90;;;;;;4993163;28;20077;-72
2021/08/17 07:04:27;;;;;;;14.18;7.15;;;12.40;99.90;;;;;;4993044;28;20026;-72
2021/08/17 07:06:52;;;;;;;11.40;6.47;;;12.40;99.90;;;;;;4993065;28;20026;-72
2021/08/17 07:09:18;;;;;;;12.77;7.18;;;12.40;99.90;;;;;;4993714;28;20026;-72
2021/08/17 07:11:43;;;;;;;11.20;6.32;;;12.30;99.90;;;;;;4992905;28;20023;-73
2021/08/17 07:14:09;;;;;;;11.15;6.50;;;12.30;99.90;;;;;;4991713;28;20034;-72
2021/08/17 07:16:36;;;;;;;11.60;7.15;;;12.30;99.90;;;;;;4993023;28;20022;-72
2021/08/17 07:19:02;;;;;;;13.52;7.20;;;12.30;99.90;;;;;;4993057;28;20015;-72
2021/08/17 07:21:28;;;;;;;12.10;7.22;;;12.50;99.90;;;;;;4992809;28;20030;-72
2021/08/17 07:23:53;;;;;;;12.85;7.22;;;12.40;99.90;;;;;;4993033;28;20451;-72
2021/08/17 07:26:19;;;;;;;14.40;6.45;;;12.60;99.90;;;;;;4992551;28;20030;-72
2021/08/17 07:28:44;;;;;;;11.77;7.00;;;12.80;99.90;;;;;;4992822;28;20480;-73
2021/08/17 07:31:10;;;;;;;13.98;6.80;;;12.80;99.90;;;;;;4992756;28;20389;-72
2021/08/17 07:33:35;;;;;;;15.20;6.82;;;12.80;99.90;;;;;;4992767;28;20038;-72
2021/08/17 07:36:01;;;;;;;11.73;6.72;;;12.70;99.90;;;;;;4992519;28;20027;-72
2021/08/17 07:38:27;;;;;;;11.30;6.93;;;12.60;99.90;;;;;;4991410;28;20022;-72
2021/08/17 07:40:52;;;;;;;13.43;6.75;;;12.70;99.90;;;;;;4996881;28;20115;-72
2021/08/17 07:43:18;;;;;;;10.60;6.40;;;12.40;99.90;;;;;;5010448;28;20034;-72
2021/08/17 07:45:43;;;;;;;13.13;6.63;;;12.50;99.90;;;;;;5007728;28;20037;-72
2021/08/17 07:48:09;;;;;;;13.50;6.38;;;12.60;99.90;;;;;;5003673;28;20117;-72
2021/08/17 07:50:38;;;;;;;13.27;7.28;;;12.50;99.90;;;;;;5012142;28;20120;-72
2021/08/17 07:53:06;;;;;;;11.93;6.50;;;12.50;99.90;;;;;;5011929;28;20424;-72
2021/08/17 07:55:31;;;;;;;11.43;6.30;;;12.60;99.90;;;;;;5011718;28;20538;-72
2021/08/17 07:57:57;;;;;;;13.75;7.00;;;12.40;99.90;;;;;;5012117;28;20128;-72
2021/08/17 08:00:22;;;;;;;13.70;7.32;;;12.50;99.90;;;;;;5011953;28;20092;-72
2021/08/17 08:02:47;;;;;;;12.57;6.40;;;12.50;99.90;;;;;;5010595;28;20096;-72
2021/08/17 08:05:13;;;;;;;14.60;6.60;;;12.40;99.90;;;;;;4993765;28;20038;-72
2021/08/17 08:07:39;;;;;;;13.73;6.57;;;12.40;99.90;;;;;;4992403;28;20061;-72
2021/08/17 08:10:05;;;;;;;12.05;6.72;;;12.40;99.90;;;;;;4992090;28;20497;-73
2021/08/17 08:12:30;;;;;;;12.40;7.20;;;12.60;99.90;;;;;;4992211;28;20026;-72
2021/08/17 08:14:56;;;;;;;14.55;7.15;;;12.60;99.90;;;;;;4991996;28;20497;-72
2021/08/17 08:17:21;;;;;;;13.55;7.20;;;12.60;99.90;;;;;;4992282;28;20057;-72
2021/08/17 08:19:47;;;;;;;12.85;7.35;;;12.60;99.90;;;;;;4992211;28;20041;-72
2021/08/17 08:22:12;;;;;;;14.25;6.95;;;12.70;99.90;;;;;;4992505;28;20026;-72
2021/08/17 08:24:38;;;;;;;12.63;7.30;;;12.80;99.90;;;;;;4991848;28;20505;-72
2021/08/17 08:27:05;;;;;;;9.77;6.88;;;12.80;99.90;;;;;;4990926;28;20489;-72
2021/08/17 08:29:31;;;;;;;11.80;7.43;;;12.80;99.90;;;;;;4992382;28;20202;-73
2021/08/17 08:31:56;;;;;;;15.02;7.13;;;12.80;99.90;;;;;;4992008;28;20128;-73
2021/08/17 08:34:22;;;;;;;12.57;6.55;;;12.90;99.90;;;;;;4991799;28;20030;-73
2021/08/17 08:36:49;;;;;;;14.40;7.22;;;12.90;99.90;;;;;;4992155;28;20105;-73
2021/08/17 08:39:15;;;;;;;11.02;7.00;;;12.80;99.90;;;;;;4991934;28;20076;-73
2021/08/17 08:41:40;;;;;;;15.43;7.57;;;12.80;99.90;;;;;;4991903;28;20030;-73
2021/08/17 08:44:06;;;;;;;12.00;6.93;;;12.80;99.90;;;;;;4991973;28;20018;-73
2021/08/17 08:46:34;;;;;;;12.82;6.80;;;12.80;99.90;;;;;;4992151;28;20373;-73
2021/08/17 08:49:01;;;;;;;10.80;6.90;;;12.70;99.90;;;;;;4990781;28;20026;-73
2021/08/17 08:51:27;;;;;;;12.38;7.40;;;12.70;99.90;;;;;;4992230;28;20064;-73
2021/08/17 08:53:52;;;;;;;12.90;7.22;;;12.70;99.90;;;;;;4996464;28;20026;-73
2021/08/17 08:56:18;;;;;;;12.80;7.93;;;12.60;99.90;;;;;;5014950;28;20048;-73
2021/08/17 08:58:43;;;;;;;11.98;7.47;;;12.60;99.90;;;;;;5015127;28;20114;-73
2021/08/17 09:01:11;;;;;;;13.15;6.90;;;12.70;99.90;;;;;;5015060;28;20030;-73
2021/08/17 09:03:47;;;;;;;14.20;7.47;;;12.80;99.90;;;;;;5013822;28;20038;-73
2021/08/17 09:06:27;;;;;;;13.07;7.50;;;13.10;99.90;;;;;;5015354;28;20037;-73
2021/08/17 09:09:23;;;;;;;14.35;7.93;;;13.30;99.90;;;;;;5015059;28;20026;-73
2021/08/17 09:11:54;;;;;;;12.52;7.65;;;13.50;99.90;;;;;;4985715;28;20046;-73
2021/08/17 09:14:24;;;;;;;13.38;7.20;;;13.70;99.90;;;;;;5001432;28;20464;-72
2021/08/17 09:16:53;;;;;;;11.32;7.47;;;13.80;99.90;;;;;;4982656;28;20092;-73
2021/08/17 09:19:48;;;;;;;13.98;7.78;;;13.60;99.90;;;;;;4995175;28;20101;-73
2021/08/17 09:22:19;;;;;;;14.20;7.82;;;14.00;99.90;;;;;;4994301;28;20038;-73
2021/08/17 09:24:47;;;;;;;12.50;7.60;;;14.00;99.90;;;;;;4995015;28;20022;-73
2021/08/17 09:27:22;;;;;;;13.23;7.20;;;13.90;99.90;;;;;;4993924;28;20026;-73
2021/08/17 09:29:52;;;;;;;12.43;7.32;;;13.90;99.90;;;;;;4995230;28;20049;-73
2021/08/17 09:32:22;;;;;;;12.27;7.70;;;13.90;99.90;;;;;;4995014;28;20113;-73
2021/08/17 09:34:50;;;;;;;13.77;7.80;;;13.90;99.90;;;;;;4994733;28;20026;-73
2021/08/17 09:37:16;;;;;;;13.93;8.05;;;14.20;99.90;;;;;;4994862;28;20087;-73
2021/08/17 09:39:47;;;;;;;11.82;7.45;;;14.10;99.90;;;;;;4994915;28;20034;-73
2021/08/17 09:42:30;;;;;;;12.77;7.82;;;14.10;99.90;;;;;;4994790;28;20026;-73
2021/08/17 09:45:05;;;;;;;14.90;8.25;;;14.10;99.90;;;;;;4994609;28;20033;-73
2021/08/17 09:47:35;;;;;;;13.35;7.90;;;14.30;99.90;;;;;;4994868;28;20436;-73
2021/08/17 09:50:20;;;;;;;13.30;8.15;;;14.60;99.90;;;;;;4994650;28;20045;-73
2021/08/17 09:52:48;;;;;;;12.15;6.40;;;14.60;99.90;;;;;;5004570;28;20030;-73
2021/08/17 09:55:16;;;;;;;12.43;7.35;;;14.50;99.90;;;;;;4994388;28;20030;-73
2021/08/17 09:57:42;;;;;;;12.75;7.53;;;14.60;99.90;;;;;;4994601;28;20033;-73
2021/08/17 10:00:14;;;;;;;12.93;7.90;;;14.40;99.90;;;;;;4994498;28;20022;-73
2021/08/17 10:02:41;;;;;;;14.32;8.60;;;14.30;99.90;;;;;;4994331;28;20397;-73
2021/08/17 10:05:08;;;;;;;10.27;7.18;;;14.60;99.90;;;;;;4994206;28;20028;-73
2021/08/17 10:07:34;;;;;;;13.15;7.50;;;15.00;99.90;;;;;;5004016;28;20033;-73
2021/08/17 10:09:59;;;;;;;14.05;7.32;;;15.30;99.90;;;;;;5013861;28;20026;-73
2021/08/17 10:12:25;;;;;;;13.40;7.50;;;15.30;99.90;;;;;;5013682;28;20025;-73
2021/08/17 10:14:51;;;;;;;12.93;7.57;;;15.10;99.90;;;;;;5003164;28;20097;-72
2021/08/17 10:17:16;;;;;;;11.43;7.28;;;14.90;99.90;;;;;;4994177;28;20117;-73
2021/08/17 10:19:44;;;;;;;9.80;6.57;;;15.30;99.90;;;;;;4994102;28;20031;-73
2021/08/17 10:22:10;;;;;;;12.73;7.55;;;15.70;99.90;;;;;;4994012;28;20038;-73
2021/08/17 10:24:40;;;;;;;12.35;7.10;;;15.80;99.90;;;;;;4993869;28;20035;-73
2021/08/17 10:27:21;;;;;;;9.32;6.90;;;15.70;99.90;;;;;;4993944;28;20076;-73
2021/08/17 10:30:02;;;;;;;11.10;6.72;;;15.20;99.90;;;;;;4993928;28;20034;-73
2021/08/17 10:32:54;;;;;;;12.70;6.75;;;15.20;99.90;;;;;;4993753;28;20026;-73
2021/08/17 10:35:55;;;;;;;13.75;7.30;;;15.10;99.90;;;;;;4993709;28;20025;-73
2021/08/17 10:38:23;;;;;;;12.70;6.80;;;15.30;99.90;;;;;;4993501;28;20344;-73
2021/08/17 10:40:49;;;;;;;10.20;6.90;;;15.60;99.90;;;;;;4993846;28;20018;-73
2021/08/17 10:43:27;;;;;;;11.77;7.43;;;16.10;99.90;;;;;;4993743;28;20125;-73
2021/08/17 10:45:53;;;;;;;10.80;6.75;;;16.10;99.90;;;;;;5012184;28;20022;-73
2021/08/17 10:48:50;;;;;;;15.07;6.75;;;16.10;99.90;;;;;;5012035;28;20030;-73
2021/08/17 10:51:18;;;;;;;13.35;6.78;;;16.20;99.90;;;;;;5013131;28;20075;-73
2021/08/17 10:54:03;;;;;;;11.50;7.45;;;16.60;99.90;;;;;;4999822;28;20033;-73
2021/08/17 10:56:36;;;;;;;11.18;7.15;;;16.50;99.90;;;;;;5013208;28;20057;-73
2021/08/17 10:59:02;;;;;;;10.20;7.13;;;16.70;99.90;;;;;;5013012;28;20060;-73
2021/08/17 11:01:30;;;;;;;10.38;6.55;;;16.50;99.90;;;;;;5011593;28;20021;-73
2021/08/17 11:03:57;;;;;;;11.85;7.22;;;16.20;99.90;;;;;;5012955;28;20049;-73
2021/08/17 11:06:39;;;;;;;10.23;6.32;;;16.00;99.90;;;;;;5011451;28;20037;-73
2021/08/17 11:09:30;;;;;;;10.38;6.68;;;15.60;99.90;;;;;;5012917;28;20022;-73
2021/08/17 11:12:05;;;;;;;10.98;6.90;;;15.60;99.90;;;;;;4992655;28;20034;-73
2021/08/17 11:14:41;;;;;;;12.05;7.30;;;15.70;99.90;;;;;;4992822;28;20037;-73
2021/08/17 11:17:18;;;;;;;11.10;7.45;;;15.70;99.90;;;;;;4993151;28;20023;-73
2021/08/17 11:19:49;;;;;;;9.93;7.13;;;15.60;99.90;;;;;;4991029;28;20564;-73
2021/08/17 11:22:41;;;;;;;12.13;6.80;;;15.60;99.90;;;;;;4991729;28;20485;-73
2021/08/17 11:25:09;;;;;;;10.63;7.35;;;16.00;99.90;;;;;;4988709;28;20072;-73
2021/08/17 11:27:40;;;;;;;11.57;7.38;;;16.20;99.90;;;;;;5012482;28;20018;-73
2021/08/17 11:30:08;;;;;;;10.57;6.80;;;16.30;99.90;;;;;;5011223;28;20127;-73
2021/08/17 11:32:39;;;;;;;10.00;7.25;;;16.30;99.90;;;;;;5012858;28;20435;-74
2021/08/17 11:35:11;;;;;;;10.55;6.55;;;16.30;99.90;;;;;;5011968;28;20066;-73
2021/08/17 11:37:41;;;;;;;11.98;7.95;;;16.50;99.90;;;;;;5010821;28;20028;-73
2021/08/17 11:40:09;;;;;;;12.35;7.97;;;17.00;99.90;;;;;;5012344;28;20057;-73
2021/08/17 11:42:37;;;;;;;13.70;7.32;;;17.00;99.90;;;;;;5011991;28;20117;-73
2021/08/17 11:45:05;;;;;;;13.82;7.00;;;16.70;99.90;;;;;;5010721;28;20034;-72
2021/08/17 11:47:31;;;;;;;11.55;7.43;;;16.80;99.90;;;;;;5012142;28;20108;-73
2021/08/17 11:49:59;;;;;;;12.60;7.25;;;16.60;99.90;;;;;;5012026;28;20460;-72
2021/08/17 11:52:27;;;;;;;11.10;7.53;;;16.80;99.90;;;;;;5011924;28;20026;-73
2021/08/17 11:55:11;;;;;;;11.40;7.40;;;16.90;99.90;;;;;;5011788;28;20029;-73
2021/08/17 11:57:41;;;;;;;11.93;6.65;;;17.30;99.90;;;;;;5011989;28;20488;-73
2021/08/17 12:00:12;;;;;;;10.88;7.18;;;17.20;99.90;;;;;;5011995;28;20485;-73
2021/08/17 12:02:49;;;;;;;11.15;7.18;;;16.90;99.90;;;;;;5010677;28;20053;-73
2021/08/17 12:05:17;;;;;;;12.10;7.22;;;16.60;99.90;;;;;;5011623;28;20033;-73
2021/08/17 12:07:44;;;;;;;10.98;7.07;;;16.70;99.90;;;;;;5001547;28;20485;-73
2021/08/17 12:10:27;;;;;;;10.40;7.80;;;16.90;99.90;;;;;;4992267;28;20038;-74
2021/08/17 12:13:04;;;;;;;12.77;7.57;;;16.90;99.90;;;;;;4992112;28;20062;-73
2021/08/17 12:15:39;;;;;;;11.10;7.13;;;16.70;99.90;;;;;;4992063;28;20031;-73
2021/08/17 12:18:06;;;;;;;11.68;6.68;;;16.40;99.90;;;;;;4992063;28;20042;-73
2021/08/17 12:20:33;;;;;;;11.82;7.35;;;16.20;99.90;;;;;;4992212;28;20428;-73
2021/08/17 12:22:58;;;;;;;11.93;7.63;;;16.20;99.90;;;;;;4992025;28;20026;-73
2021/08/17 12:25:26;;;;;;;11.55;7.68;;;16.20;99.90;;;;;;4992023;28;20041;-74
2021/08/17 12:27:53;;;;;;;11.40;7.57;;;16.20;99.90;;;;;;4992136;28;20104;-73
2021/08/17 12:30:27;;;;;;;10.63;7.72;;;16.10;99.90;;;;;;5005571;28;20033;-73
2021/08/17 12:32:54;;;;;;;12.63;7.90;;;16.20;99.90;;;;;;5015389;28;20121;-73
2021/08/17 12:35:30;;;;;;;11.82;7.72;;;16.20;99.90;;;;;;5015430;28;20029;-73
2021/08/17 12:38:12;;;;;;;13.30;7.97;;;16.40;99.90;;;;;;5015621;28;20028;-73